Terminal Aerodrome Forecast
Issued by NWS

Home | Current Version | Previous Version | Text Only | Print | Product List | Glossary On
Versions: 1 2 3 4 5 6 7 8 9 10 11 12 13
647
FTUS44 KBMX 051120
TAFMGM
TAF
KMGM 051120Z 0512/0612 05006KT 1SM -DZ BR OVC003
     FM051500 05005KT 4SM BR VCSH OVC004
     FM051800 07005KT 4SM SHRA BR OVC005
     FM060600 11006KT 4SM SHRA BR OVC005=

USA.gov is the U.S. government's official web portal to all federal, state and local government web resources and services.